West Woodward Airport Woodward US
ICAO: KWWR
IATA: WWR
Category: Medium
Scheduled Services: No

Elevation: 2189 ft
TransAlt. 18000 ft.

Airport Communications:
AWOS 3:118.425
KANSAS CITY CNTR:126.95
CTAF/UNICOM:122.8

KWWR Zoom In..

If you have problems with the map follow the link
https://www.worldairports.se/pages/airport.php?
ICAO=KWWR

Runways:

(A) RW 05 length 2500 ft width 60 ft
---- / hdg 52

(B) RW 17 length 5502 ft width 100 ft
---- / hdg 172

(C) RW 23 length 2500 ft width 60 ft
---- / hdg 232

(D) RW 35 length 5502 ft width 100 ft
---- / hdg 352

Location; KWWR
Day. 06 / Time. 02.35 Zulu
* Altimeter: 30.00
* Temperature: 10° c. 50°f.
* Wind from: 360° Speed 12 kn.
Dewpoint: 02° c.
Visibility: 10 Statute Miles.
Clouds: Scattered 7000 ft.
Clouds: Overcast 9000 ft.

KWWR 060235Z AUTO 36012KT 10SM SCT070 OVC090 10/02 A3000 RMK AO2


Wind From 360°
Speed 12 kn.

 
 
jpsmedia worldairports.se 2019   terms of use